sensor_id;sensor_type;location;lat;lon;timestamp;P1;durP1;ratioP1;P2;durP2;ratioP2
24761;SDS011;12865;51.934;10.330;2024-02-26T00:00:17;3.10;;;2.40;;
24761;SDS011;12865;51.934;10.330;2024-02-26T00:03:03;1.50;;;1.20;;
24761;SDS011;12865;51.934;10.330;2024-02-26T00:05:48;3.22;;;1.70;;
24761;SDS011;12865;51.934;10.330;2024-02-26T00:08:34;1.45;;;1.33;;
24761;SDS011;12865;51.934;10.330;2024-02-26T00:11:20;1.50;;;1.40;;
24761;SDS011;12865;51.934;10.330;2024-02-26T00:14:05;2.03;;;1.48;;
24761;SDS011;12865;51.934;10.330;2024-02-26T00:16:51;1.50;;;1.40;;
24761;SDS011;12865;51.934;10.330;2024-02-26T00:19:37;2.13;;;1.70;;
24761;SDS011;12865;51.934;10.330;2024-02-26T00:22:22;1.60;;;1.50;;
24761;SDS011;12865;51.934;10.330;2024-02-26T00:25:08;2.33;;;1.60;;
24761;SDS011;12865;51.934;10.330;2024-02-26T00:27:54;1.60;;;1.50;;
24761;SDS011;12865;51.934;10.330;2024-02-26T00:30:39;2.80;;;1.73;;
24761;SDS011;12865;51.934;10.330;2024-02-26T00:33:25;1.85;;;1.70;;
24761;SDS011;12865;51.934;10.330;2024-02-26T00:36:11;1.58;;;1.42;;
24761;SDS011;12865;51.934;10.330;2024-02-26T00:38:57;1.45;;;1.35;;
24761;SDS011;12865;51.934;10.330;2024-02-26T00:41:42;1.85;;;1.75;;
24761;SDS011;12865;51.934;10.330;2024-02-26T00:44:28;3.13;;;1.85;;
24761;SDS011;12865;51.934;10.330;2024-02-26T00:47:14;1.80;;;1.70;;
24761;SDS011;12865;51.934;10.330;2024-02-26T00:49:59;1.70;;;1.60;;
24761;SDS011;12865;51.934;10.330;2024-02-26T00:52:45;2.80;;;1.35;;
24761;SDS011;12865;51.934;10.330;2024-02-26T00:55:31;1.95;;;1.50;;
24761;SDS011;12865;51.934;10.330;2024-02-26T00:58:17;1.40;;;1.30;;
24761;SDS011;12865;51.934;10.330;2024-02-26T01:01:03;2.17;;;1.50;;
24761;SDS011;12865;51.934;10.330;2024-02-26T01:03:49;2.28;;;1.70;;
24761;SDS011;12865;51.934;10.330;2024-02-26T01:06:34;1.58;;;1.40;;
24761;SDS011;12865;51.934;10.330;2024-02-26T01:09:20;2.47;;;1.10;;
24761;SDS011;12865;51.934;10.330;2024-02-26T01:12:06;1.48;;;1.20;;
24761;SDS011;12865;51.934;10.330;2024-02-26T01:14:51;2.42;;;1.45;;
24761;SDS011;12865;51.934;10.330;2024-02-26T01:17:37;1.65;;;1.55;;
24761;SDS011;12865;51.934;10.330;2024-02-26T01:20:24;1.55;;;1.45;;
24761;SDS011;12865;51.934;10.330;2024-02-26T01:23:09;3.28;;;1.63;;
24761;SDS011;12865;51.934;10.330;2024-02-26T01:25:55;1.88;;;1.60;;
24761;SDS011;12865;51.934;10.330;2024-02-26T01:28:41;2.05;;;1.83;;
24761;SDS011;12865;51.934;10.330;2024-02-26T01:31:26;3.05;;;2.58;;
24761;SDS011;12865;51.934;10.330;2024-02-26T01:34:12;3.42;;;2.72;;
24761;SDS011;12865;51.934;10.330;2024-02-26T01:36:58;2.95;;;1.88;;
24761;SDS011;12865;51.934;10.330;2024-02-26T01:39:43;2.83;;;1.77;;
24761;SDS011;12865;51.934;10.330;2024-02-26T01:42:30;2.50;;;1.50;;
24761;SDS011;12865;51.934;10.330;2024-02-26T01:45:17;1.67;;;1.58;;
24761;SDS011;12865;51.934;10.330;2024-02-26T01:48:09;1.83;;;1.63;;
24761;SDS011;12865;51.934;10.330;2024-02-26T01:50:56;1.65;;;1.55;;
24761;SDS011;12865;51.934;10.330;2024-02-26T01:53:42;4.40;;;1.70;;
24761;SDS011;12865;51.934;10.330;2024-02-26T01:56:28;1.80;;;1.70;;
24761;SDS011;12865;51.934;10.330;2024-02-26T01:59:17;1.93;;;1.83;;
24761;SDS011;12865;51.934;10.330;2024-02-26T02:02:03;3.75;;;1.90;;
24761;SDS011;12865;51.934;10.330;2024-02-26T02:04:52;1.65;;;1.55;;
24761;SDS011;12865;51.934;10.330;2024-02-26T02:07:38;1.85;;;1.50;;
24761;SDS011;12865;51.934;10.330;2024-02-26T02:10:25;2.22;;;1.40;;
24761;SDS011;12865;51.934;10.330;2024-02-26T02:13:12;1.70;;;1.60;;
24761;SDS011;12865;51.934;10.330;2024-02-26T02:15:57;3.00;;;1.85;;
24761;SDS011;12865;51.934;10.330;2024-02-26T02:18:43;2.83;;;1.45;;
24761;SDS011;12865;51.934;10.330;2024-02-26T02:21:29;1.65;;;1.40;;
24761;SDS011;12865;51.934;10.330;2024-02-26T02:24:14;2.15;;;1.60;;
24761;SDS011;12865;51.934;10.330;2024-02-26T02:27:00;1.40;;;1.30;;
24761;SDS011;12865;51.934;10.330;2024-02-26T02:29:47;1.52;;;1.42;;
24761;SDS011;12865;51.934;10.330;2024-02-26T02:32:33;1.70;;;1.60;;
24761;SDS011;12865;51.934;10.330;2024-02-26T02:35:20;2.40;;;1.58;;
24761;SDS011;12865;51.934;10.330;2024-02-26T02:38:06;2.53;;;1.70;;
24761;SDS011;12865;51.934;10.330;2024-02-26T02:40:52;2.60;;;1.75;;
24761;SDS011;12865;51.934;10.330;2024-02-26T02:43:38;1.75;;;1.65;;
24761;SDS011;12865;51.934;10.330;2024-02-26T02:46:23;1.90;;;1.48;;
24761;SDS011;12865;51.934;10.330;2024-02-26T02:49:09;2.60;;;1.70;;
24761;SDS011;12865;51.934;10.330;2024-02-26T02:51:57;1.50;;;1.40;;
24761;SDS011;12865;51.934;10.330;2024-02-26T02:54:43;3.17;;;1.20;;
24761;SDS011;12865;51.934;10.330;2024-02-26T02:57:28;1.90;;;1.40;;
24761;SDS011;12865;51.934;10.330;2024-02-26T03:00:15;1.90;;;1.38;;
24761;SDS011;12865;51.934;10.330;2024-02-26T03:03:02;1.63;;;1.40;;
24761;SDS011;12865;51.934;10.330;2024-02-26T03:05:47;1.95;;;1.52;;
24761;SDS011;12865;51.934;10.330;2024-02-26T03:08:33;1.95;;;1.30;;
24761;SDS011;12865;51.934;10.330;2024-02-26T03:11:23;1.48;;;1.38;;
24761;SDS011;12865;51.934;10.330;2024-02-26T03:14:08;1.95;;;1.70;;
24761;SDS011;12865;51.934;10.330;2024-02-26T03:16:55;3.53;;;1.60;;
24761;SDS011;12865;51.934;10.330;2024-02-26T03:19:40;1.20;;;1.20;;
24761;SDS011;12865;51.934;10.330;2024-02-26T03:22:26;1.30;;;1.20;;
24761;SDS011;12865;51.934;10.330;2024-02-26T03:25:12;2.30;;;1.58;;
24761;SDS011;12865;51.934;10.330;2024-02-26T03:27:57;2.60;;;1.45;;
24761;SDS011;12865;51.934;10.330;2024-02-26T03:30:43;1.80;;;1.70;;
24761;SDS011;12865;51.934;10.330;2024-02-26T03:33:29;1.45;;;1.35;;
24761;SDS011;12865;51.934;10.330;2024-02-26T03:36:15;2.40;;;1.27;;
24761;SDS011;12865;51.934;10.330;2024-02-26T03:39:00;3.13;;;1.50;;
24761;SDS011;12865;51.934;10.330;2024-02-26T03:41:49;3.17;;;1.90;;
24761;SDS011;12865;51.934;10.330;2024-02-26T03:44:35;1.48;;;1.30;;
24761;SDS011;12865;51.934;10.330;2024-02-26T03:47:21;1.52;;;1.42;;
24761;SDS011;12865;51.934;10.330;2024-02-26T03:50:06;1.67;;;1.10;;
24761;SDS011;12865;51.934;10.330;2024-02-26T03:52:53;2.10;;;1.27;;
24761;SDS011;12865;51.934;10.330;2024-02-26T03:55:39;1.50;;;1.40;;
24761;SDS011;12865;51.934;10.330;2024-02-26T03:58:27;1.50;;;1.40;;
24761;SDS011;12865;51.934;10.330;2024-02-26T04:01:12;1.67;;;1.50;;
24761;SDS011;12865;51.934;10.330;2024-02-26T04:03:58;4.00;;;1.83;;
24761;SDS011;12865;51.934;10.330;2024-02-26T04:06:44;1.85;;;1.75;;
24761;SDS011;12865;51.934;10.330;2024-02-26T04:09:31;1.90;;;1.70;;
24761;SDS011;12865;51.934;10.330;2024-02-26T04:12:17;1.45;;;1.35;;
24761;SDS011;12865;51.934;10.330;2024-02-26T04:15:04;1.55;;;1.33;;
24761;SDS011;12865;51.934;10.330;2024-02-26T04:17:50;1.55;;;1.45;;
24761;SDS011;12865;51.934;10.330;2024-02-26T04:20:36;1.65;;;1.55;;
24761;SDS011;12865;51.934;10.330;2024-02-26T04:23:21;2.35;;;1.73;;
24761;SDS011;12865;51.934;10.330;2024-02-26T04:26:07;2.33;;;1.67;;
24761;SDS011;12865;51.934;10.330;2024-02-26T04:28:53;2.05;;;1.60;;
24761;SDS011;12865;51.934;10.330;2024-02-26T04:31:38;2.35;;;1.27;;
24761;SDS011;12865;51.934;10.330;2024-02-26T04:34:24;1.52;;;1.30;;
24761;SDS011;12865;51.934;10.330;2024-02-26T04:37:10;1.23;;;1.13;;
24761;SDS011;12865;51.934;10.330;2024-02-26T04:39:59;2.85;;;1.50;;
24761;SDS011;12865;51.934;10.330;2024-02-26T04:42:46;1.98;;;1.40;;
24761;SDS011;12865;51.934;10.330;2024-02-26T04:45:31;1.70;;;1.58;;
24761;SDS011;12865;51.934;10.330;2024-02-26T04:48:17;2.63;;;1.50;;
24761;SDS011;12865;51.934;10.330;2024-02-26T04:51:03;1.42;;;1.23;;
24761;SDS011;12865;51.934;10.330;2024-02-26T04:53:48;2.75;;;1.95;;
24761;SDS011;12865;51.934;10.330;2024-02-26T04:56:34;4.70;;;1.70;;
24761;SDS011;12865;51.934;10.330;2024-02-26T04:59:20;2.88;;;2.00;;
24761;SDS011;12865;51.934;10.330;2024-02-26T05:02:06;4.35;;;2.50;;
24761;SDS011;12865;51.934;10.330;2024-02-26T05:04:51;2.55;;;2.35;;
24761;SDS011;12865;51.934;10.330;2024-02-26T05:07:40;3.47;;;2.90;;
24761;SDS011;12865;51.934;10.330;2024-02-26T05:10:30;3.72;;;3.05;;
24761;SDS011;12865;51.934;10.330;2024-02-26T05:13:16;3.72;;;3.42;;
24761;SDS011;12865;51.934;10.330;2024-02-26T05:16:03;4.22;;;3.83;;
24761;SDS011;12865;51.934;10.330;2024-02-26T05:18:49;3.92;;;3.28;;
24761;SDS011;12865;51.934;10.330;2024-02-26T05:21:35;3.67;;;3.38;;
24761;SDS011;12865;51.934;10.330;2024-02-26T05:24:20;4.38;;;3.60;;
24761;SDS011;12865;51.934;10.330;2024-02-26T05:27:07;3.40;;;3.10;;
24761;SDS011;12865;51.934;10.330;2024-02-26T05:29:53;3.97;;;3.30;;
24761;SDS011;12865;51.934;10.330;2024-02-26T05:32:39;4.15;;;3.75;;
24761;SDS011;12865;51.934;10.330;2024-02-26T05:35:25;3.97;;;3.67;;
24761;SDS011;12865;51.934;10.330;2024-02-26T05:38:11;4.78;;;3.80;;
24761;SDS011;12865;51.934;10.330;2024-02-26T05:40:57;4.25;;;3.53;;
24761;SDS011;12865;51.934;10.330;2024-02-26T05:43:44;4.03;;;3.63;;
24761;SDS011;12865;51.934;10.330;2024-02-26T05:46:29;4.57;;;3.83;;
24761;SDS011;12865;51.934;10.330;2024-02-26T05:49:15;5.97;;;4.28;;
24761;SDS011;12865;51.934;10.330;2024-02-26T05:52:01;5.50;;;4.30;;
24761;SDS011;12865;51.934;10.330;2024-02-26T05:54:47;5.85;;;4.72;;
24761;SDS011;12865;51.934;10.330;2024-02-26T05:57:33;9.52;;;6.38;;
24761;SDS011;12865;51.934;10.330;2024-02-26T06:00:20;6.25;;;5.65;;
24761;SDS011;12865;51.934;10.330;2024-02-26T06:03:06;9.65;;;6.03;;
24761;SDS011;12865;51.934;10.330;2024-02-26T06:05:51;8.60;;;6.47;;
24761;SDS011;12865;51.934;10.330;2024-02-26T06:08:37;6.78;;;5.88;;
24761;SDS011;12865;51.934;10.330;2024-02-26T06:11:23;7.82;;;7.03;;
24761;SDS011;12865;51.934;10.330;2024-02-26T06:14:09;6.70;;;5.97;;
24761;SDS011;12865;51.934;10.330;2024-02-26T06:16:55;9.90;;;6.72;;
24761;SDS011;12865;51.934;10.330;2024-02-26T06:19:40;9.05;;;6.95;;
24761;SDS011;12865;51.934;10.330;2024-02-26T06:22:26;7.65;;;6.20;;
24761;SDS011;12865;51.934;10.330;2024-02-26T06:25:12;8.18;;;6.60;;
24761;SDS011;12865;51.934;10.330;2024-02-26T06:27:58;8.20;;;7.40;;
24761;SDS011;12865;51.934;10.330;2024-02-26T06:30:43;8.98;;;7.15;;
24761;SDS011;12865;51.934;10.330;2024-02-26T06:33:30;11.88;;;8.40;;
24761;SDS011;12865;51.934;10.330;2024-02-26T06:36:16;9.18;;;7.45;;
24761;SDS011;12865;51.934;10.330;2024-02-26T06:39:01;12.05;;;8.48;;
24761;SDS011;12865;51.934;10.330;2024-02-26T06:41:47;11.40;;;8.38;;
24761;SDS011;12865;51.934;10.330;2024-02-26T06:44:33;11.15;;;9.13;;
24761;SDS011;12865;51.934;10.330;2024-02-26T06:47:19;11.63;;;9.48;;
24761;SDS011;12865;51.934;10.330;2024-02-26T06:50:05;10.80;;;9.48;;
24761;SDS011;12865;51.934;10.330;2024-02-26T06:52:51;12.77;;;10.20;;
24761;SDS011;12865;51.934;10.330;2024-02-26T06:55:37;13.45;;;9.40;;
24761;SDS011;12865;51.934;10.330;2024-02-26T06:58:25;15.40;;;11.25;;
24761;SDS011;12865;51.934;10.330;2024-02-26T07:01:12;13.15;;;10.40;;
24761;SDS011;12865;51.934;10.330;2024-02-26T07:03:58;14.73;;;10.10;;
24761;SDS011;12865;51.934;10.330;2024-02-26T07:06:43;12.73;;;9.95;;
24761;SDS011;12865;51.934;10.330;2024-02-26T07:09:31;12.15;;;8.95;;
24761;SDS011;12865;51.934;10.330;2024-02-26T07:12:17;9.77;;;7.88;;
24761;SDS011;12865;51.934;10.330;2024-02-26T07:15:03;12.13;;;9.73;;
24761;SDS011;12865;51.934;10.330;2024-02-26T07:17:49;14.18;;;11.20;;
24761;SDS011;12865;51.934;10.330;2024-02-26T07:20:35;15.48;;;11.13;;
24761;SDS011;12865;51.934;10.330;2024-02-26T07:23:21;16.08;;;10.60;;
24761;SDS011;12865;51.934;10.330;2024-02-26T07:26:06;16.58;;;12.18;;
24761;SDS011;12865;51.934;10.330;2024-02-26T07:28:53;15.70;;;11.65;;
24761;SDS011;12865;51.934;10.330;2024-02-26T07:31:39;16.08;;;11.55;;
24761;SDS011;12865;51.934;10.330;2024-02-26T07:34:25;14.85;;;10.70;;
24761;SDS011;12865;51.934;10.330;2024-02-26T07:40:00;13.15;;;10.55;;
24761;SDS011;12865;51.934;10.330;2024-02-26T07:42:45;13.25;;;10.27;;
24761;SDS011;12865;51.934;10.330;2024-02-26T07:45:31;16.88;;;12.57;;
24761;SDS011;12865;51.934;10.330;2024-02-26T07:48:17;15.88;;;12.73;;
24761;SDS011;12865;51.934;10.330;2024-02-26T07:51:03;16.60;;;13.20;;
24761;SDS011;12865;51.934;10.330;2024-02-26T07:53:49;15.57;;;12.02;;
24761;SDS011;12865;51.934;10.330;2024-02-26T07:56:35;15.07;;;12.57;;
24761;SDS011;12865;51.934;10.330;2024-02-26T07:59:21;16.00;;;12.80;;
24761;SDS011;12865;51.934;10.330;2024-02-26T08:02:06;15.00;;;12.23;;
24761;SDS011;12865;51.934;10.330;2024-02-26T08:04:53;15.98;;;11.70;;
24761;SDS011;12865;51.934;10.330;2024-02-26T08:07:38;15.98;;;12.35;;
24761;SDS011;12865;51.934;10.330;2024-02-26T08:10:24;18.05;;;13.02;;
24761;SDS011;12865;51.934;10.330;2024-02-26T08:13:10;16.92;;;12.05;;
24761;SDS011;12865;51.934;10.330;2024-02-26T08:15:55;15.30;;;12.38;;
24761;SDS011;12865;51.934;10.330;2024-02-26T08:18:41;17.05;;;13.15;;
24761;SDS011;12865;51.934;10.330;2024-02-26T08:21:27;16.40;;;11.38;;
24761;SDS011;12865;51.934;10.330;2024-02-26T08:24:12;13.50;;;10.55;;
24761;SDS011;12865;51.934;10.330;2024-02-26T08:26:58;14.68;;;11.43;;
24761;SDS011;12865;51.934;10.330;2024-02-26T08:29:44;15.80;;;11.68;;
24761;SDS011;12865;51.934;10.330;2024-02-26T08:32:30;14.73;;;11.60;;
24761;SDS011;12865;51.934;10.330;2024-02-26T08:35:15;15.20;;;11.02;;
24761;SDS011;12865;51.934;10.330;2024-02-26T08:38:01;16.40;;;11.73;;
24761;SDS011;12865;51.934;10.330;2024-02-26T08:40:48;12.75;;;10.50;;
24761;SDS011;12865;51.934;10.330;2024-02-26T08:43:34;12.98;;;11.23;;
24761;SDS011;12865;51.934;10.330;2024-02-26T08:46:20;15.50;;;11.90;;
24761;SDS011;12865;51.934;10.330;2024-02-26T08:49:06;13.00;;;10.68;;
24761;SDS011;12865;51.934;10.330;2024-02-26T08:51:52;14.40;;;11.48;;
24761;SDS011;12865;51.934;10.330;2024-02-26T08:54:37;15.57;;;10.95;;
24761;SDS011;12865;51.934;10.330;2024-02-26T08:57:23;13.05;;;11.02;;
24761;SDS011;12865;51.934;10.330;2024-02-26T09:00:09;14.60;;;10.98;;
24761;SDS011;12865;51.934;10.330;2024-02-26T09:02:56;12.75;;;10.80;;
24761;SDS011;12865;51.934;10.330;2024-02-26T09:05:42;15.18;;;11.50;;
24761;SDS011;12865;51.934;10.330;2024-02-26T09:08:27;15.43;;;11.52;;
24761;SDS011;12865;51.934;10.330;2024-02-26T09:11:13;15.05;;;11.38;;
24761;SDS011;12865;51.934;10.330;2024-02-26T09:13:59;15.93;;;12.38;;
24761;SDS011;12865;51.934;10.330;2024-02-26T09:19:12;14.40;;;12.32;;
24761;SDS011;12865;51.934;10.330;2024-02-26T09:21:58;14.77;;;12.98;;
24761;SDS011;12865;51.934;10.330;2024-02-26T09:24:44;16.35;;;12.55;;
24761;SDS011;12865;51.934;10.330;2024-02-26T09:27:30;15.93;;;13.65;;
24761;SDS011;12865;51.934;10.330;2024-02-26T09:30:16;16.17;;;14.05;;
24761;SDS011;12865;51.934;10.330;2024-02-26T09:33:01;21.67;;;15.57;;
24761;SDS011;12865;51.934;10.330;2024-02-26T09:35:47;50.47;;;25.98;;
24761;SDS011;12865;51.934;10.330;2024-02-26T09:38:33;64.28;;;34.00;;
24761;SDS011;12865;51.934;10.330;2024-02-26T09:44:07;23.65;;;16.10;;
24761;SDS011;12865;51.934;10.330;2024-02-26T09:46:54;23.35;;;20.23;;
24761;SDS011;12865;51.934;10.330;2024-02-26T09:49:40;24.40;;;20.58;;
24761;SDS011;12865;51.934;10.330;2024-02-26T09:52:27;25.58;;;17.02;;
24761;SDS011;12865;51.934;10.330;2024-02-26T09:55:16;33.70;;;29.92;;
24761;SDS011;12865;51.934;10.330;2024-02-26T09:58:02;19.52;;;15.88;;
24761;SDS011;12865;51.934;10.330;2024-02-26T10:00:51;22.17;;;16.73;;
24761;SDS011;12865;51.934;10.330;2024-02-26T10:03:42;26.30;;;23.58;;
24761;SDS011;12865;51.934;10.330;2024-02-26T10:06:30;28.13;;;22.35;;
24761;SDS011;12865;51.934;10.330;2024-02-26T10:09:16;23.40;;;19.15;;
24761;SDS011;12865;51.934;10.330;2024-02-26T10:12:02;21.33;;;17.40;;
24761;SDS011;12865;51.934;10.330;2024-02-26T10:14:50;22.73;;;17.77;;
24761;SDS011;12865;51.934;10.330;2024-02-26T10:17:36;21.02;;;17.05;;
24761;SDS011;12865;51.934;10.330;2024-02-26T10:20:24;21.45;;;17.13;;
24761;SDS011;12865;51.934;10.330;2024-02-26T10:23:11;22.67;;;16.67;;
24761;SDS011;12865;51.934;10.330;2024-02-26T10:25:57;20.10;;;16.63;;
24761;SDS011;12865;51.934;10.330;2024-02-26T10:28:43;23.17;;;17.17;;
24761;SDS011;12865;51.934;10.330;2024-02-26T10:31:30;18.15;;;16.25;;
24761;SDS011;12865;51.934;10.330;2024-02-26T10:34:15;19.95;;;15.15;;
24761;SDS011;12865;51.934;10.330;2024-02-26T10:37:01;20.00;;;14.55;;
24761;SDS011;12865;51.934;10.330;2024-02-26T10:39:48;20.55;;;15.32;;
24761;SDS011;12865;51.934;10.330;2024-02-26T10:42:34;16.42;;;13.70;;
24761;SDS011;12865;51.934;10.330;2024-02-26T10:45:20;15.38;;;13.07;;
24761;SDS011;12865;51.934;10.330;2024-02-26T10:48:09;17.95;;;12.90;;
24761;SDS011;12865;51.934;10.330;2024-02-26T10:50:55;16.75;;;11.85;;
24761;SDS011;12865;51.934;10.330;2024-02-26T10:53:43;15.02;;;11.60;;
24761;SDS011;12865;51.934;10.330;2024-02-26T10:56:32;13.75;;;10.32;;
24761;SDS011;12865;51.934;10.330;2024-02-26T10:59:19;13.93;;;11.10;;
24761;SDS011;12865;51.934;10.330;2024-02-26T11:02:06;15.85;;;10.85;;
24761;SDS011;12865;51.934;10.330;2024-02-26T11:04:53;10.52;;;9.43;;
24761;SDS011;12865;51.934;10.330;2024-02-26T11:07:40;11.32;;;8.82;;
24761;SDS011;12865;51.934;10.330;2024-02-26T11:10:27;9.77;;;8.60;;
24761;SDS011;12865;51.934;10.330;2024-02-26T11:13:16;42.03;;;28.87;;
24761;SDS011;12865;51.934;10.330;2024-02-26T11:16:03;26.40;;;15.43;;
24761;SDS011;12865;51.934;10.330;2024-02-26T11:18:50;11.93;;;9.07;;
24761;SDS011;12865;51.934;10.330;2024-02-26T11:21:40;10.40;;;8.18;;
24761;SDS011;12865;51.934;10.330;2024-02-26T11:24:27;10.45;;;8.82;;
24761;SDS011;12865;51.934;10.330;2024-02-26T11:27:13;10.95;;;8.80;;
24761;SDS011;12865;51.934;10.330;2024-02-26T11:30:03;10.95;;;8.52;;
24761;SDS011;12865;51.934;10.330;2024-02-26T11:32:50;12.25;;;10.23;;
24761;SDS011;12865;51.934;10.330;2024-02-26T11:35:37;9.82;;;8.18;;
24761;SDS011;12865;51.934;10.330;2024-02-26T11:38:24;11.10;;;9.05;;
24761;SDS011;12865;51.934;10.330;2024-02-26T11:41:12;11.73;;;9.70;;
24761;SDS011;12865;51.934;10.330;2024-02-26T11:46:47;12.55;;;9.32;;
24761;SDS011;12865;51.934;10.330;2024-02-26T11:49:34;9.75;;;8.27;;
24761;SDS011;12865;51.934;10.330;2024-02-26T11:52:20;10.52;;;8.32;;
24761;SDS011;12865;51.934;10.330;2024-02-26T11:55:06;9.50;;;8.10;;
24761;SDS011;12865;51.934;10.330;2024-02-26T11:57:54;10.55;;;8.55;;
24761;SDS011;12865;51.934;10.330;2024-02-26T12:00:40;9.13;;;8.23;;
24761;SDS011;12865;51.934;10.330;2024-02-26T12:03:26;11.88;;;8.50;;
24761;SDS011;12865;51.934;10.330;2024-02-26T12:06:12;10.73;;;8.77;;
24761;SDS011;12865;51.934;10.330;2024-02-26T12:08:58;10.43;;;8.93;;
24761;SDS011;12865;51.934;10.330;2024-02-26T12:11:44;11.60;;;9.23;;
24761;SDS011;12865;51.934;10.330;2024-02-26T12:14:32;12.00;;;8.75;;
24761;SDS011;12865;51.934;10.330;2024-02-26T12:17:38;10.45;;;8.90;;
24761;SDS011;12865;51.934;10.330;2024-02-26T12:20:25;10.82;;;8.95;;
24761;SDS011;12865;51.934;10.330;2024-02-26T12:23:14;10.25;;;9.10;;
24761;SDS011;12865;51.934;10.330;2024-02-26T12:26:04;9.60;;;8.18;;
24761;SDS011;12865;51.934;10.330;2024-02-26T12:28:50;12.25;;;8.93;;
24761;SDS011;12865;51.934;10.330;2024-02-26T12:31:35;10.63;;;8.38;;
24761;SDS011;12865;51.934;10.330;2024-02-26T12:34:24;9.93;;;8.77;;
24761;SDS011;12865;51.934;10.330;2024-02-26T12:37:10;10.02;;;8.63;;
24761;SDS011;12865;51.934;10.330;2024-02-26T12:39:56;11.35;;;8.07;;
24761;SDS011;12865;51.934;10.330;2024-02-26T12:42:42;10.68;;;7.47;;
24761;SDS011;12865;51.934;10.330;2024-02-26T12:45:28;12.57;;;8.32;;
24761;SDS011;12865;51.934;10.330;2024-02-26T12:48:14;9.30;;;8.40;;
24761;SDS011;12865;51.934;10.330;2024-02-26T12:50:59;12.35;;;8.45;;
24761;SDS011;12865;51.934;10.330;2024-02-26T12:53:45;11.55;;;7.90;;
24761;SDS011;12865;51.934;10.330;2024-02-26T12:56:32;11.90;;;8.65;;
24761;SDS011;12865;51.934;10.330;2024-02-26T12:59:18;12.32;;;8.07;;
24761;SDS011;12865;51.934;10.330;2024-02-26T13:02:04;11.57;;;8.80;;
24761;SDS011;12865;51.934;10.330;2024-02-26T13:04:50;11.70;;;8.85;;
24761;SDS011;12865;51.934;10.330;2024-02-26T13:07:40;11.63;;;8.82;;
24761;SDS011;12865;51.934;10.330;2024-02-26T13:10:27;11.43;;;8.95;;
24761;SDS011;12865;51.934;10.330;2024-02-26T13:13:16;12.65;;;8.43;;
24761;SDS011;12865;51.934;10.330;2024-02-26T13:16:03;12.35;;;8.88;;
24761;SDS011;12865;51.934;10.330;2024-02-26T13:18:52;10.77;;;9.27;;
24761;SDS011;12865;51.934;10.330;2024-02-26T13:21:37;10.70;;;8.75;;
24761;SDS011;12865;51.934;10.330;2024-02-26T13:24:23;12.45;;;9.35;;
24761;SDS011;12865;51.934;10.330;2024-02-26T13:27:10;13.15;;;9.95;;
24761;SDS011;12865;51.934;10.330;2024-02-26T13:30:08;14.00;;;9.77;;
24761;SDS011;12865;51.934;10.330;2024-02-26T13:32:55;12.80;;;10.25;;
24761;SDS011;12865;51.934;10.330;2024-02-26T13:35:41;14.95;;;11.02;;
24761;SDS011;12865;51.934;10.330;2024-02-26T13:38:27;15.73;;;10.82;;
24761;SDS011;12865;51.934;10.330;2024-02-26T13:44:01;11.90;;;10.63;;
24761;SDS011;12865;51.934;10.330;2024-02-26T13:46:47;16.42;;;11.38;;
24761;SDS011;12865;51.934;10.330;2024-02-26T13:49:34;15.48;;;11.80;;
24761;SDS011;12865;51.934;10.330;2024-02-26T13:52:20;15.48;;;11.43;;
24761;SDS011;12865;51.934;10.330;2024-02-26T13:55:06;15.55;;;11.88;;
24761;SDS011;12865;51.934;10.330;2024-02-26T13:57:52;14.60;;;11.40;;
24761;SDS011;12865;51.934;10.330;2024-02-26T14:00:39;15.27;;;11.98;;
24761;SDS011;12865;51.934;10.330;2024-02-26T14:03:26;15.32;;;12.10;;
24761;SDS011;12865;51.934;10.330;2024-02-26T14:06:12;14.43;;;12.30;;
24761;SDS011;12865;51.934;10.330;2024-02-26T14:08:58;12.90;;;11.15;;
24761;SDS011;12865;51.934;10.330;2024-02-26T14:11:48;15.38;;;10.85;;
24761;SDS011;12865;51.934;10.330;2024-02-26T14:17:23;16.40;;;11.43;;
24761;SDS011;12865;51.934;10.330;2024-02-26T14:20:09;15.10;;;11.60;;
24761;SDS011;12865;51.934;10.330;2024-02-26T14:22:55;21.20;;;15.70;;
24761;SDS011;12865;51.934;10.330;2024-02-26T14:25:41;21.23;;;14.27;;
24761;SDS011;12865;51.934;10.330;2024-02-26T14:28:26;14.07;;;10.82;;
24761;SDS011;12865;51.934;10.330;2024-02-26T14:31:17;14.00;;;11.27;;
24761;SDS011;12865;51.934;10.330;2024-02-26T14:34:03;13.68;;;10.55;;
24761;SDS011;12865;51.934;10.330;2024-02-26T14:36:49;12.57;;;11.27;;
24761;SDS011;12865;51.934;10.330;2024-02-26T14:39:34;12.02;;;10.82;;
24761;SDS011;12865;51.934;10.330;2024-02-26T14:42:20;15.13;;;11.52;;
24761;SDS011;12865;51.934;10.330;2024-02-26T14:45:06;14.07;;;11.25;;
24761;SDS011;12865;51.934;10.330;2024-02-26T14:47:54;11.50;;;10.35;;
24761;SDS011;12865;51.934;10.330;2024-02-26T14:50:40;14.05;;;10.32;;
24761;SDS011;12865;51.934;10.330;2024-02-26T14:53:26;13.30;;;10.63;;
24761;SDS011;12865;51.934;10.330;2024-02-26T14:56:11;15.18;;;10.50;;
24761;SDS011;12865;51.934;10.330;2024-02-26T14:58:57;13.73;;;10.13;;
24761;SDS011;12865;51.934;10.330;2024-02-26T15:01:43;13.50;;;11.07;;
24761;SDS011;12865;51.934;10.330;2024-02-26T15:04:28;12.45;;;10.02;;
24761;SDS011;12865;51.934;10.330;2024-02-26T15:07:14;11.45;;;10.10;;
24761;SDS011;12865;51.934;10.330;2024-02-26T15:10:00;13.25;;;10.13;;
24761;SDS011;12865;51.934;10.330;2024-02-26T15:12:46;12.55;;;11.13;;
24761;SDS011;12865;51.934;10.330;2024-02-26T15:15:32;11.63;;;10.48;;
24761;SDS011;12865;51.934;10.330;2024-02-26T15:18:18;12.82;;;10.20;;
24761;SDS011;12865;51.934;10.330;2024-02-26T15:21:04;13.43;;;10.93;;
24761;SDS011;12865;51.934;10.330;2024-02-26T15:23:49;14.70;;;11.32;;
24761;SDS011;12865;51.934;10.330;2024-02-26T15:26:35;12.35;;;9.90;;
24761;SDS011;12865;51.934;10.330;2024-02-26T15:29:21;15.63;;;10.57;;
24761;SDS011;12865;51.934;10.330;2024-02-26T15:32:07;12.80;;;10.65;;
24761;SDS011;12865;51.934;10.330;2024-02-26T15:34:59;12.90;;;10.60;;
24761;SDS011;12865;51.934;10.330;2024-02-26T15:37:45;11.82;;;10.63;;
24761;SDS011;12865;51.934;10.330;2024-02-26T15:40:30;15.32;;;11.48;;
24761;SDS011;12865;51.934;10.330;2024-02-26T15:43:16;13.95;;;10.95;;
24761;SDS011;12865;51.934;10.330;2024-02-26T15:46:06;13.68;;;12.15;;
24761;SDS011;12865;51.934;10.330;2024-02-26T15:48:52;13.55;;;10.85;;
24761;SDS011;12865;51.934;10.330;2024-02-26T15:51:38;15.85;;;12.13;;
24761;SDS011;12865;51.934;10.330;2024-02-26T15:54:23;15.27;;;10.73;;
24761;SDS011;12865;51.934;10.330;2024-02-26T15:57:12;11.98;;;10.55;;
24761;SDS011;12865;51.934;10.330;2024-02-26T15:59:59;15.63;;;11.35;;
24761;SDS011;12865;51.934;10.330;2024-02-26T16:02:47;13.95;;;11.75;;
24761;SDS011;12865;51.934;10.330;2024-02-26T16:05:34;14.60;;;11.68;;
24761;SDS011;12865;51.934;10.330;2024-02-26T16:08:21;19.67;;;12.50;;
24761;SDS011;12865;51.934;10.330;2024-02-26T16:11:09;14.35;;;11.98;;
24761;SDS011;12865;51.934;10.330;2024-02-26T16:17:18;15.35;;;12.07;;
24761;SDS011;12865;51.934;10.330;2024-02-26T16:20:08;18.38;;;11.75;;
24761;SDS011;12865;51.934;10.330;2024-02-26T16:22:54;12.90;;;10.95;;
24761;SDS011;12865;51.934;10.330;2024-02-26T16:25:40;13.73;;;11.88;;
24761;SDS011;12865;51.934;10.330;2024-02-26T16:28:26;16.05;;;11.75;;
24761;SDS011;12865;51.934;10.330;2024-02-26T16:31:12;17.23;;;12.77;;